sensor_id;sensor_type;location;lat;lon;timestamp;P1;durP1;ratioP1;P2;durP2;ratioP2
57615;SDS011;43816;52.054;-9.494;2023-08-01T00:00:02;4.00;;;3.70;;
57615;SDS011;43816;52.054;-9.494;2023-08-01T00:00:13;4.13;;;3.83;;
57615;SDS011;43816;52.054;-9.494;2023-08-01T00:00:24;4.10;;;3.80;;
57615;SDS011;43816;52.054;-9.494;2023-08-01T00:00:34;4.00;;;3.70;;
57615;SDS011;43816;52.054;-9.494;2023-08-01T00:00:44;4.00;;;3.70;;
57615;SDS011;43816;52.054;-9.494;2023-08-01T00:00:55;3.90;;;3.60;;
57615;SDS011;43816;52.054;-9.494;2023-08-01T00:01:05;3.90;;;3.60;;
57615;SDS011;43816;52.054;-9.494;2023-08-01T00:01:15;3.70;;;3.50;;
57615;SDS011;43816;52.054;-9.494;2023-08-01T00:01:26;3.83;;;3.63;;
57615;SDS011;43816;52.054;-9.494;2023-08-01T00:01:36;3.70;;;3.50;;
57615;SDS011;43816;52.054;-9.494;2023-08-01T00:01:46;3.67;;;3.40;;
57615;SDS011;43816;52.054;-9.494;2023-08-01T00:01:57;3.70;;;3.40;;
57615;SDS011;43816;52.054;-9.494;2023-08-01T00:02:07;3.77;;;3.47;;
57615;SDS011;43816;52.054;-9.494;2023-08-01T00:02:17;3.63;;;3.40;;
57615;SDS011;43816;52.054;-9.494;2023-08-01T00:02:27;3.70;;;3.40;;
57615;SDS011;43816;52.054;-9.494;2023-08-01T00:02:38;3.70;;;3.40;;
57615;SDS011;43816;52.054;-9.494;2023-08-01T00:02:49;4.10;;;3.80;;
57615;SDS011;43816;52.054;-9.494;2023-08-01T00:02:59;4.18;;;3.88;;
57615;SDS011;43816;52.054;-9.494;2023-08-01T00:03:10;4.20;;;3.90;;
57615;SDS011;43816;52.054;-9.494;2023-08-01T00:03:20;3.90;;;3.60;;
57615;SDS011;43816;52.054;-9.494;2023-08-01T00:03:31;3.70;;;3.50;;
57615;SDS011;43816;52.054;-9.494;2023-08-01T00:03:41;3.80;;;3.60;;
57615;SDS011;43816;52.054;-9.494;2023-08-01T00:03:52;4.00;;;3.70;;
57615;SDS011;43816;52.054;-9.494;2023-08-01T00:04:02;3.80;;;3.50;;
57615;SDS011;43816;52.054;-9.494;2023-08-01T00:04:12;3.80;;;3.50;;
57615;SDS011;43816;52.054;-9.494;2023-08-01T00:04:23;3.87;;;3.57;;
57615;SDS011;43816;52.054;-9.494;2023-08-01T00:04:33;4.20;;;3.90;;
57615;SDS011;43816;52.054;-9.494;2023-08-01T00:04:43;4.20;;;3.90;;
57615;SDS011;43816;52.054;-9.494;2023-08-01T00:04:53;4.27;;;3.97;;
57615;SDS011;43816;52.054;-9.494;2023-08-01T00:05:04;4.20;;;3.80;;
57615;SDS011;43816;52.054;-9.494;2023-08-01T00:05:14;4.30;;;3.90;;
57615;SDS011;43816;52.054;-9.494;2023-08-01T00:05:24;4.07;;;3.70;;
57615;SDS011;43816;52.054;-9.494;2023-08-01T00:05:35;4.03;;;3.72;;
57615;SDS011;43816;52.054;-9.494;2023-08-01T00:05:45;3.70;;;3.50;;
57615;SDS011;43816;52.054;-9.494;2023-08-01T00:05:55;3.80;;;3.50;;
57615;SDS011;43816;52.054;-9.494;2023-08-01T00:06:06;3.80;;;3.50;;
57615;SDS011;43816;52.054;-9.494;2023-08-01T00:06:16;3.75;;;3.45;;
57615;SDS011;43816;52.054;-9.494;2023-08-01T00:06:26;3.93;;;3.63;;
57615;SDS011;43816;52.054;-9.494;2023-08-01T00:06:36;4.07;;;3.77;;
57615;SDS011;43816;52.054;-9.494;2023-08-01T00:06:47;3.97;;;3.67;;
57615;SDS011;43816;52.054;-9.494;2023-08-01T00:06:57;3.90;;;3.60;;
57615;SDS011;43816;52.054;-9.494;2023-08-01T00:07:07;3.80;;;3.50;;
57615;SDS011;43816;52.054;-9.494;2023-08-01T00:07:17;3.97;;;3.67;;
57615;SDS011;43816;52.054;-9.494;2023-08-01T00:07:28;3.92;;;3.63;;
57615;SDS011;43816;52.054;-9.494;2023-08-01T00:07:38;4.30;;;3.90;;
57615;SDS011;43816;52.054;-9.494;2023-08-01T00:07:49;4.00;;;3.70;;
57615;SDS011;43816;52.054;-9.494;2023-08-01T00:07:59;3.97;;;3.67;;
57615;SDS011;43816;52.054;-9.494;2023-08-01T00:08:10;3.80;;;3.50;;
57615;SDS011;43816;52.054;-9.494;2023-08-01T00:08:23;3.90;;;3.60;;
57615;SDS011;43816;52.054;-9.494;2023-08-01T00:08:33;3.67;;;3.43;;
57615;SDS011;43816;52.054;-9.494;2023-08-01T00:08:43;3.75;;;3.55;;
57615;SDS011;43816;52.054;-9.494;2023-08-01T00:08:54;3.80;;;3.60;;
57615;SDS011;43816;52.054;-9.494;2023-08-01T00:09:04;3.80;;;3.60;;
57615;SDS011;43816;52.054;-9.494;2023-08-01T00:09:14;3.90;;;3.60;;
57615;SDS011;43816;52.054;-9.494;2023-08-01T00:09:24;3.83;;;3.60;;
57615;SDS011;43816;52.054;-9.494;2023-08-01T00:09:35;3.90;;;3.70;;
57615;SDS011;43816;52.054;-9.494;2023-08-01T00:09:45;4.03;;;3.73;;
57615;SDS011;43816;52.054;-9.494;2023-08-01T00:09:55;4.00;;;3.70;;
57615;SDS011;43816;52.054;-9.494;2023-08-01T00:10:06;4.07;;;3.77;;
57615;SDS011;43816;52.054;-9.494;2023-08-01T00:10:16;4.00;;;3.70;;
57615;SDS011;43816;52.054;-9.494;2023-08-01T00:10:26;3.95;;;3.70;;
57615;SDS011;43816;52.054;-9.494;2023-08-01T00:10:37;3.80;;;3.60;;
57615;SDS011;43816;52.054;-9.494;2023-08-01T00:10:47;3.80;;;3.60;;
57615;SDS011;43816;52.054;-9.494;2023-08-01T00:10:57;3.90;;;3.70;;
57615;SDS011;43816;52.054;-9.494;2023-08-01T00:11:08;3.90;;;3.70;;
57615;SDS011;43816;52.054;-9.494;2023-08-01T00:11:18;3.80;;;3.60;;
57615;SDS011;43816;52.054;-9.494;2023-08-01T00:11:28;3.73;;;3.53;;
57615;SDS011;43816;52.054;-9.494;2023-08-01T00:11:38;3.65;;;3.40;;
57615;SDS011;43816;52.054;-9.494;2023-08-01T00:11:49;3.67;;;3.37;;
57615;SDS011;43816;52.054;-9.494;2023-08-01T00:11:59;3.70;;;3.40;;
57615;SDS011;43816;52.054;-9.494;2023-08-01T00:12:09;3.88;;;3.50;;
57615;SDS011;43816;52.054;-9.494;2023-08-01T00:12:19;3.90;;;3.60;;
57615;SDS011;43816;52.054;-9.494;2023-08-01T00:12:30;4.00;;;3.70;;
57615;SDS011;43816;52.054;-9.494;2023-08-01T00:12:40;3.83;;;3.63;;
57615;SDS011;43816;52.054;-9.494;2023-08-01T00:12:50;3.80;;;3.60;;
57615;SDS011;43816;52.054;-9.494;2023-08-01T00:13:00;3.83;;;3.63;;
57615;SDS011;43816;52.054;-9.494;2023-08-01T00:13:11;4.10;;;3.80;;
57615;SDS011;43816;52.054;-9.494;2023-08-01T00:13:21;4.10;;;3.80;;
57615;SDS011;43816;52.054;-9.494;2023-08-01T00:13:31;3.87;;;3.57;;
57615;SDS011;43816;52.054;-9.494;2023-08-01T00:13:41;3.50;;;3.30;;
57615;SDS011;43816;52.054;-9.494;2023-08-01T00:13:52;3.60;;;3.40;;
57615;SDS011;43816;52.054;-9.494;2023-08-01T00:14:02;3.87;;;3.57;;
57615;SDS011;43816;52.054;-9.494;2023-08-01T00:14:12;3.70;;;3.50;;
57615;SDS011;43816;52.054;-9.494;2023-08-01T00:14:23;3.70;;;3.50;;
57615;SDS011;43816;52.054;-9.494;2023-08-01T00:14:33;3.70;;;3.50;;
57615;SDS011;43816;52.054;-9.494;2023-08-01T00:14:43;3.80;;;3.60;;
57615;SDS011;43816;52.054;-9.494;2023-08-01T00:14:53;4.00;;;3.70;;
57615;SDS011;43816;52.054;-9.494;2023-08-01T00:15:04;3.85;;;3.65;;
57615;SDS011;43816;52.054;-9.494;2023-08-01T00:15:15;4.05;;;3.75;;
57615;SDS011;43816;52.054;-9.494;2023-08-01T00:15:25;4.03;;;3.73;;
57615;SDS011;43816;52.054;-9.494;2023-08-01T00:15:35;4.07;;;3.80;;
57615;SDS011;43816;52.054;-9.494;2023-08-01T00:15:45;3.90;;;3.70;;
57615;SDS011;43816;52.054;-9.494;2023-08-01T00:15:56;3.72;;;3.53;;
57615;SDS011;43816;52.054;-9.494;2023-08-01T00:16:06;3.77;;;3.57;;
57615;SDS011;43816;52.054;-9.494;2023-08-01T00:16:16;3.97;;;3.67;;
57615;SDS011;43816;52.054;-9.494;2023-08-01T00:16:27;4.10;;;3.80;;
57615;SDS011;43816;52.054;-9.494;2023-08-01T00:16:37;3.97;;;3.67;;
57615;SDS011;43816;52.054;-9.494;2023-08-01T00:16:47;3.90;;;3.60;;
57615;SDS011;43816;52.054;-9.494;2023-08-01T00:16:57;3.73;;;3.50;;
57615;SDS011;43816;52.054;-9.494;2023-08-01T00:17:08;3.55;;;3.35;;
57615;SDS011;43816;52.054;-9.494;2023-08-01T00:17:18;3.57;;;3.37;;
57615;SDS011;43816;52.054;-9.494;2023-08-01T00:17:28;3.60;;;3.40;;
57615;SDS011;43816;52.054;-9.494;2023-08-01T00:17:39;3.88;;;3.67;;
57615;SDS011;43816;52.054;-9.494;2023-08-01T00:17:49;3.97;;;3.70;;
57615;SDS011;43816;52.054;-9.494;2023-08-01T00:17:59;3.80;;;3.60;;
57615;SDS011;43816;52.054;-9.494;2023-08-01T00:18:10;3.60;;;3.40;;
57615;SDS011;43816;52.054;-9.494;2023-08-01T00:18:20;3.40;;;3.20;;
57615;SDS011;43816;52.054;-9.494;2023-08-01T00:18:30;3.50;;;3.30;;
57615;SDS011;43816;52.054;-9.494;2023-08-01T00:18:40;3.60;;;3.40;;
57615;SDS011;43816;52.054;-9.494;2023-08-01T00:18:51;3.63;;;3.43;;
57615;SDS011;43816;52.054;-9.494;2023-08-01T00:19:01;3.87;;;3.60;;
57615;SDS011;43816;52.054;-9.494;2023-08-01T00:19:11;3.90;;;3.60;;
57615;SDS011;43816;52.054;-9.494;2023-08-01T00:19:21;3.80;;;3.50;;
57615;SDS011;43816;52.054;-9.494;2023-08-01T00:19:32;3.57;;;3.37;;
57615;SDS011;43816;52.054;-9.494;2023-08-01T00:19:42;3.53;;;3.33;;
57615;SDS011;43816;52.054;-9.494;2023-08-01T00:19:52;3.90;;;3.60;;
57615;SDS011;43816;52.054;-9.494;2023-08-01T00:20:03;3.80;;;3.60;;
57615;SDS011;43816;52.054;-9.494;2023-08-01T00:20:14;3.67;;;3.47;;
57615;SDS011;43816;52.054;-9.494;2023-08-01T00:20:24;3.60;;;3.40;;
57615;SDS011;43816;52.054;-9.494;2023-08-01T00:20:34;3.70;;;3.50;;
57615;SDS011;43816;52.054;-9.494;2023-08-01T00:20:44;3.80;;;3.60;;
57615;SDS011;43816;52.054;-9.494;2023-08-01T00:20:55;3.90;;;3.67;;
57615;SDS011;43816;52.054;-9.494;2023-08-01T00:21:05;3.90;;;3.60;;
57615;SDS011;43816;52.054;-9.494;2023-08-01T00:21:15;3.90;;;3.70;;
57615;SDS011;43816;52.054;-9.494;2023-08-01T00:21:26;3.80;;;3.60;;
57615;SDS011;43816;52.054;-9.494;2023-08-01T00:21:36;3.80;;;3.60;;
57615;SDS011;43816;52.054;-9.494;2023-08-01T00:21:46;3.80;;;3.60;;
57615;SDS011;43816;52.054;-9.494;2023-08-01T00:21:56;3.73;;;3.50;;
57615;SDS011;43816;52.054;-9.494;2023-08-01T00:22:07;4.10;;;3.80;;
57615;SDS011;43816;52.054;-9.494;2023-08-01T00:22:17;4.03;;;3.73;;
57615;SDS011;43816;52.054;-9.494;2023-08-01T00:22:27;4.03;;;3.78;;
57615;SDS011;43816;52.054;-9.494;2023-08-01T00:22:38;3.63;;;3.43;;
57615;SDS011;43816;52.054;-9.494;2023-08-01T00:22:48;3.60;;;3.40;;
57615;SDS011;43816;52.054;-9.494;2023-08-01T00:22:58;3.60;;;3.40;;
57615;SDS011;43816;52.054;-9.494;2023-08-01T00:23:08;3.70;;;3.50;;
57615;SDS011;43816;52.054;-9.494;2023-08-01T00:23:19;3.80;;;3.50;;
57615;SDS011;43816;52.054;-9.494;2023-08-01T00:23:29;3.93;;;3.47;;
57615;SDS011;43816;52.054;-9.494;2023-08-01T00:23:40;3.97;;;3.53;;
57615;SDS011;43816;52.054;-9.494;2023-08-01T00:23:50;4.17;;;3.73;;
57615;SDS011;43816;52.054;-9.494;2023-08-01T00:24:00;4.00;;;3.70;;
57615;SDS011;43816;52.054;-9.494;2023-08-01T00:24:11;4.00;;;3.70;;
57615;SDS011;43816;52.054;-9.494;2023-08-01T00:24:21;3.90;;;3.60;;
57615;SDS011;43816;52.054;-9.494;2023-08-01T00:24:31;3.90;;;3.60;;
57615;SDS011;43816;52.054;-9.494;2023-08-01T00:24:41;4.03;;;3.73;;
57615;SDS011;43816;52.054;-9.494;2023-08-01T00:24:52;3.97;;;3.67;;
57615;SDS011;43816;52.054;-9.494;2023-08-01T00:25:02;3.90;;;3.67;;
57615;SDS011;43816;52.054;-9.494;2023-08-01T00:25:12;3.93;;;3.73;;
57615;SDS011;43816;52.054;-9.494;2023-08-01T00:25:23;3.95;;;3.75;;
57615;SDS011;43816;52.054;-9.494;2023-08-01T00:25:33;3.90;;;3.70;;
57615;SDS011;43816;52.054;-9.494;2023-08-01T00:25:43;3.70;;;3.50;;
57615;SDS011;43816;52.054;-9.494;2023-08-01T00:25:53;3.80;;;3.50;;
57615;SDS011;43816;52.054;-9.494;2023-08-01T00:26:04;3.90;;;3.60;;
57615;SDS011;43816;52.054;-9.494;2023-08-01T00:26:14;3.83;;;3.53;;
57615;SDS011;43816;52.054;-9.494;2023-08-01T00:26:24;3.80;;;3.50;;
57615;SDS011;43816;52.054;-9.494;2023-08-01T00:26:34;3.67;;;3.47;;
57615;SDS011;43816;52.054;-9.494;2023-08-01T00:26:45;3.83;;;3.60;;
57615;SDS011;43816;52.054;-9.494;2023-08-01T00:26:55;3.83;;;3.53;;
57615;SDS011;43816;52.054;-9.494;2023-08-01T00:27:05;3.70;;;3.50;;
57615;SDS011;43816;52.054;-9.494;2023-08-01T00:27:16;3.80;;;3.60;;
57615;SDS011;43816;52.054;-9.494;2023-08-01T00:27:26;3.90;;;3.70;;
57615;SDS011;43816;52.054;-9.494;2023-08-01T00:27:36;3.80;;;3.60;;
57615;SDS011;43816;52.054;-9.494;2023-08-01T00:27:46;3.60;;;3.40;;
57615;SDS011;43816;52.054;-9.494;2023-08-01T00:27:57;3.63;;;3.40;;
57615;SDS011;43816;52.054;-9.494;2023-08-01T00:28:07;3.90;;;3.60;;
57615;SDS011;43816;52.054;-9.494;2023-08-01T00:28:17;4.07;;;3.80;;
57615;SDS011;43816;52.054;-9.494;2023-08-01T00:28:29;3.95;;;3.72;;
57615;SDS011;43816;52.054;-9.494;2023-08-01T00:28:40;4.00;;;3.70;;
57615;SDS011;43816;52.054;-9.494;2023-08-01T00:28:50;3.93;;;3.53;;
57615;SDS011;43816;52.054;-9.494;2023-08-01T00:29:00;3.93;;;3.60;;
57615;SDS011;43816;52.054;-9.494;2023-08-01T00:29:11;3.95;;;3.65;;
57615;SDS011;43816;52.054;-9.494;2023-08-01T00:29:22;3.90;;;3.70;;
57615;SDS011;43816;52.054;-9.494;2023-08-01T00:29:33;3.70;;;3.50;;
57615;SDS011;43816;52.054;-9.494;2023-08-01T00:29:43;3.80;;;3.50;;
57615;SDS011;43816;52.054;-9.494;2023-08-01T00:29:53;3.88;;;3.58;;
57615;SDS011;43816;52.054;-9.494;2023-08-01T00:30:04;3.77;;;3.50;;
57615;SDS011;43816;52.054;-9.494;2023-08-01T00:30:15;3.60;;;3.40;;
57615;SDS011;43816;52.054;-9.494;2023-08-01T00:30:25;3.57;;;3.37;;
57615;SDS011;43816;52.054;-9.494;2023-08-01T00:30:35;3.58;;;3.38;;
57615;SDS011;43816;52.054;-9.494;2023-08-01T00:30:45;3.50;;;3.30;;
57615;SDS011;43816;52.054;-9.494;2023-08-01T00:31:05;3.63;;;3.43;;
57615;SDS011;43816;52.054;-9.494;2023-08-01T00:31:16;3.80;;;3.60;;
57615;SDS011;43816;52.054;-9.494;2023-08-01T00:31:27;3.80;;;3.60;;
57615;SDS011;43816;52.054;-9.494;2023-08-01T00:31:37;3.90;;;3.63;;
57615;SDS011;43816;52.054;-9.494;2023-08-01T00:31:49;4.25;;;3.95;;
57615;SDS011;43816;52.054;-9.494;2023-08-01T00:31:59;4.22;;;3.92;;
57615;SDS011;43816;52.054;-9.494;2023-08-01T00:32:09;4.23;;;3.93;;
57615;SDS011;43816;52.054;-9.494;2023-08-01T00:32:20;4.10;;;3.80;;
57615;SDS011;43816;52.054;-9.494;2023-08-01T00:32:30;4.13;;;3.83;;
57615;SDS011;43816;52.054;-9.494;2023-08-01T00:32:41;3.90;;;3.70;;
57615;SDS011;43816;52.054;-9.494;2023-08-01T00:32:52;4.00;;;3.70;;
57615;SDS011;43816;52.054;-9.494;2023-08-01T00:33:02;3.90;;;3.60;;
57615;SDS011;43816;52.054;-9.494;2023-08-01T00:33:13;4.00;;;3.70;;
57615;SDS011;43816;52.054;-9.494;2023-08-01T00:33:23;3.85;;;3.55;;
57615;SDS011;43816;52.054;-9.494;2023-08-01T00:33:33;3.87;;;3.67;;
57615;SDS011;43816;52.054;-9.494;2023-08-01T00:33:44;3.80;;;3.60;;
57615;SDS011;43816;52.054;-9.494;2023-08-01T00:33:54;3.77;;;3.57;;
57615;SDS011;43816;52.054;-9.494;2023-08-01T00:34:05;3.70;;;3.50;;
57615;SDS011;43816;52.054;-9.494;2023-08-01T00:34:15;3.80;;;3.60;;
57615;SDS011;43816;52.054;-9.494;2023-08-01T00:34:25;3.77;;;3.57;;
57615;SDS011;43816;52.054;-9.494;2023-08-01T00:34:35;3.60;;;3.40;;
57615;SDS011;43816;52.054;-9.494;2023-08-01T00:34:46;3.50;;;3.30;;
57615;SDS011;43816;52.054;-9.494;2023-08-01T00:34:56;3.53;;;3.33;;
57615;SDS011;43816;52.054;-9.494;2023-08-01T00:35:07;3.63;;;3.43;;
57615;SDS011;43816;52.054;-9.494;2023-08-01T00:35:17;3.80;;;3.60;;
57615;SDS011;43816;52.054;-9.494;2023-08-01T00:35:27;4.03;;;3.73;;
57615;SDS011;43816;52.054;-9.494;2023-08-01T00:35:38;3.90;;;3.60;;
57615;SDS011;43816;52.054;-9.494;2023-08-01T00:35:53;4.00;;;3.70;;
57615;SDS011;43816;52.054;-9.494;2023-08-01T00:36:04;4.00;;;3.70;;
57615;SDS011;43816;52.054;-9.494;2023-08-01T00:36:14;3.97;;;3.67;;
57615;SDS011;43816;52.054;-9.494;2023-08-01T00:36:24;3.70;;;3.50;;
57615;SDS011;43816;52.054;-9.494;2023-08-01T00:36:34;3.75;;;3.50;;
57615;SDS011;43816;52.054;-9.494;2023-08-01T00:36:45;3.77;;;3.50;;
57615;SDS011;43816;52.054;-9.494;2023-08-01T00:36:55;3.83;;;3.53;;
57615;SDS011;43816;52.054;-9.494;2023-08-01T00:37:05;3.70;;;3.50;;
57615;SDS011;43816;52.054;-9.494;2023-08-01T00:37:16;3.78;;;3.58;;
57615;SDS011;43816;52.054;-9.494;2023-08-01T00:37:26;3.70;;;3.50;;
57615;SDS011;43816;52.054;-9.494;2023-08-01T00:37:37;3.80;;;3.53;;
57615;SDS011;43816;52.054;-9.494;2023-08-01T00:37:47;4.00;;;3.70;;
57615;SDS011;43816;52.054;-9.494;2023-08-01T00:37:57;4.10;;;3.80;;
57615;SDS011;43816;52.054;-9.494;2023-08-01T00:38:07;4.00;;;3.70;;
57615;SDS011;43816;52.054;-9.494;2023-08-01T00:38:18;3.97;;;3.67;;
57615;SDS011;43816;52.054;-9.494;2023-08-01T00:38:28;3.90;;;3.60;;
57615;SDS011;43816;52.054;-9.494;2023-08-01T00:38:38;4.07;;;3.78;;
57615;SDS011;43816;52.054;-9.494;2023-08-01T00:38:49;3.97;;;3.67;;
57615;SDS011;43816;52.054;-9.494;2023-08-01T00:38:59;4.00;;;3.70;;
57615;SDS011;43816;52.054;-9.494;2023-08-01T00:39:09;3.92;;;3.63;;
57615;SDS011;43816;52.054;-9.494;2023-08-01T00:39:19;3.77;;;3.50;;
57615;SDS011;43816;52.054;-9.494;2023-08-01T00:39:30;3.93;;;3.63;;
57615;SDS011;43816;52.054;-9.494;2023-08-01T00:39:40;3.78;;;3.50;;
57615;SDS011;43816;52.054;-9.494;2023-08-01T00:39:51;3.80;;;3.50;;
57615;SDS011;43816;52.054;-9.494;2023-08-01T00:40:01;3.78;;;3.50;;
57615;SDS011;43816;52.054;-9.494;2023-08-01T00:40:11;3.70;;;3.50;;
57615;SDS011;43816;52.054;-9.494;2023-08-01T00:40:22;3.90;;;3.70;;
57615;SDS011;43816;52.054;-9.494;2023-08-01T00:40:32;4.00;;;3.70;;
57615;SDS011;43816;52.054;-9.494;2023-08-01T00:40:44;4.03;;;3.72;;
57615;SDS011;43816;52.054;-9.494;2023-08-01T00:40:54;3.90;;;3.60;;
57615;SDS011;43816;52.054;-9.494;2023-08-01T00:41:04;3.78;;;3.50;;
57615;SDS011;43816;52.054;-9.494;2023-08-01T00:41:14;3.70;;;3.50;;
57615;SDS011;43816;52.054;-9.494;2023-08-01T00:41:25;3.70;;;3.50;;
57615;SDS011;43816;52.054;-9.494;2023-08-01T00:41:35;3.97;;;3.67;;
57615;SDS011;43816;52.054;-9.494;2023-08-01T00:41:45;3.90;;;3.60;;
57615;SDS011;43816;52.054;-9.494;2023-08-01T00:41:55;3.77;;;3.50;;
57615;SDS011;43816;52.054;-9.494;2023-08-01T00:42:06;3.57;;;3.37;;
57615;SDS011;43816;52.054;-9.494;2023-08-01T00:42:16;3.63;;;3.43;;
57615;SDS011;43816;52.054;-9.494;2023-08-01T00:42:26;3.77;;;3.50;;
57615;SDS011;43816;52.054;-9.494;2023-08-01T00:42:37;3.97;;;3.67;;
57615;SDS011;43816;52.054;-9.494;2023-08-01T00:42:47;3.90;;;3.60;;
57615;SDS011;43816;52.054;-9.494;2023-08-01T00:42:57;3.87;;;3.57;;
57615;SDS011;43816;52.054;-9.494;2023-08-01T00:43:07;3.77;;;3.53;;
57615;SDS011;43816;52.054;-9.494;2023-08-01T00:43:18;3.75;;;3.53;;
57615;SDS011;43816;52.054;-9.494;2023-08-01T00:43:28;3.87;;;3.60;;
57615;SDS011;43816;52.054;-9.494;2023-08-01T00:43:39;4.07;;;3.77;;
57615;SDS011;43816;52.054;-9.494;2023-08-01T00:43:49;4.28;;;3.97;;
57615;SDS011;43816;52.054;-9.494;2023-08-01T00:43:59;4.37;;;3.97;;
57615;SDS011;43816;52.054;-9.494;2023-08-01T00:44:09;4.07;;;3.77;;
57615;SDS011;43816;52.054;-9.494;2023-08-01T00:44:20;3.83;;;3.53;;
57615;SDS011;43816;52.054;-9.494;2023-08-01T00:44:30;3.90;;;3.60;;
57615;SDS011;43816;52.054;-9.494;2023-08-01T00:44:40;3.80;;;3.50;;
57615;SDS011;43816;52.054;-9.494;2023-08-01T00:44:50;3.90;;;3.60;;
57615;SDS011;43816;52.054;-9.494;2023-08-01T00:45:01;3.90;;;3.60;;
57615;SDS011;43816;52.054;-9.494;2023-08-01T00:45:11;4.07;;;3.77;;
57615;SDS011;43816;52.054;-9.494;2023-08-01T00:45:21;4.00;;;3.70;;
57615;SDS011;43816;52.054;-9.494;2023-08-01T00:45:32;4.10;;;3.80;;
57615;SDS011;43816;52.054;-9.494;2023-08-01T00:45:42;3.90;;;3.60;;
57615;SDS011;43816;52.054;-9.494;2023-08-01T00:45:53;4.07;;;3.80;;
57615;SDS011;43816;52.054;-9.494;2023-08-01T00:46:08;4.10;;;3.80;;
57615;SDS011;43816;52.054;-9.494;2023-08-01T00:46:19;4.15;;;3.85;;
57615;SDS011;43816;52.054;-9.494;2023-08-01T00:46:29;4.10;;;3.80;;
57615;SDS011;43816;52.054;-9.494;2023-08-01T00:46:39;4.20;;;3.80;;
57615;SDS011;43816;52.054;-9.494;2023-08-01T00:46:50;4.00;;;3.70;;
57615;SDS011;43816;52.054;-9.494;2023-08-01T00:47:00;4.13;;;3.80;;
57615;SDS011;43816;52.054;-9.494;2023-08-01T00:47:10;3.97;;;3.70;;
57615;SDS011;43816;52.054;-9.494;2023-08-01T00:47:21;3.80;;;3.60;;
57615;SDS011;43816;52.054;-9.494;2023-08-01T00:47:31;3.77;;;3.57;;
57615;SDS011;43816;52.054;-9.494;2023-08-01T00:47:41;3.75;;;3.55;;
57615;SDS011;43816;52.054;-9.494;2023-08-01T00:47:52;3.90;;;3.70;;
57615;SDS011;43816;52.054;-9.494;2023-08-01T00:48:04;3.90;;;3.70;;
57615;SDS011;43816;52.054;-9.494;2023-08-01T00:48:15;3.92;;;3.70;;
57615;SDS011;43816;52.054;-9.494;2023-08-01T00:48:25;4.10;;;3.80;;
57615;SDS011;43816;52.054;-9.494;2023-08-01T00:48:36;4.03;;;3.73;;
57615;SDS011;43816;52.054;-9.494;2023-08-01T00:48:46;4.10;;;3.80;;
57615;SDS011;43816;52.054;-9.494;2023-08-01T00:48:56;4.05;;;3.75;;
57615;SDS011;43816;52.054;-9.494;2023-08-01T00:49:07;4.10;;;3.80;;
57615;SDS011;43816;52.054;-9.494;2023-08-01T00:49:17;3.80;;;3.60;;
57615;SDS011;43816;52.054;-9.494;2023-08-01T00:49:28;3.57;;;3.37;;
57615;SDS011;43816;52.054;-9.494;2023-08-01T00:49:38;3.63;;;3.43;;
57615;SDS011;43816;52.054;-9.494;2023-08-01T00:49:49;3.80;;;3.60;;
57615;SDS011;43816;52.054;-9.494;2023-08-01T00:50:00;4.00;;;3.80;;
57615;SDS011;43816;52.054;-9.494;2023-08-01T00:50:11;4.10;;;3.80;;
57615;SDS011;43816;52.054;-9.494;2023-08-01T00:50:22;3.97;;;3.70;;
57615;SDS011;43816;52.054;-9.494;2023-08-01T00:50:33;3.85;;;3.63;;
57615;SDS011;43816;52.054;-9.494;2023-08-01T00:50:43;3.70;;;3.50;;
57615;SDS011;43816;52.054;-9.494;2023-08-01T00:50:53;3.70;;;3.50;;
57615;SDS011;43816;52.054;-9.494;2023-08-01T00:51:04;3.70;;;3.50;;
57615;SDS011;43816;52.054;-9.494;2023-08-01T00:51:16;3.88;;;3.58;;
57615;SDS011;43816;52.054;-9.494;2023-08-01T00:51:27;3.97;;;3.67;;
57615;SDS011;43816;52.054;-9.494;2023-08-01T00:51:40;4.07;;;3.78;;
57615;SDS011;43816;52.054;-9.494;2023-08-01T00:51:51;4.20;;;3.90;;
57615;SDS011;43816;52.054;-9.494;2023-08-01T00:52:02;4.20;;;3.90;;
57615;SDS011;43816;52.054;-9.494;2023-08-01T00:52:12;4.07;;;3.77;;
57615;SDS011;43816;52.054;-9.494;2023-08-01T00:52:23;4.10;;;3.80;;
57615;SDS011;43816;52.054;-9.494;2023-08-01T00:52:33;3.90;;;3.67;;
57615;SDS011;43816;52.054;-9.494;2023-08-01T00:52:44;4.00;;;3.70;;
57615;SDS011;43816;52.054;-9.494;2023-08-01T00:52:54;3.97;;;3.67;;
57615;SDS011;43816;52.054;-9.494;2023-08-01T00:53:05;3.95;;;3.70;;
57615;SDS011;43816;52.054;-9.494;2023-08-01T00:53:15;4.00;;;3.80;;
57615;SDS011;43816;52.054;-9.494;2023-08-01T00:53:27;4.18;;;3.92;;
57615;SDS011;43816;52.054;-9.494;2023-08-01T00:53:39;4.18;;;3.88;;
57615;SDS011;43816;52.054;-9.494;2023-08-01T00:53:50;4.10;;;3.80;;
57615;SDS011;43816;52.054;-9.494;2023-08-01T00:54:01;3.97;;;3.70;;
57615;SDS011;43816;52.054;-9.494;2023-08-01T00:54:12;4.10;;;3.80;;
57615;SDS011;43816;52.054;-9.494;2023-08-01T00:54:22;4.10;;;3.80;;
57615;SDS011;43816;52.054;-9.494;2023-08-01T00:54:32;3.90;;;3.70;;
57615;SDS011;43816;52.054;-9.494;2023-08-01T00:54:45;3.80;;;3.60;;
57615;SDS011;43816;52.054;-9.494;2023-08-01T00:54:55;3.80;;;3.60;;
57615;SDS011;43816;52.054;-9.494;2023-08-01T00:55:05;3.80;;;3.60;;
57615;SDS011;43816;52.054;-9.494;2023-08-01T00:55:16;3.70;;;3.50;;
57615;SDS011;43816;52.054;-9.494;2023-08-01T00:55:28;3.83;;;3.63;;
57615;SDS011;43816;52.054;-9.494;2023-08-01T00:55:40;4.03;;;3.83;;
57615;SDS011;43816;52.054;-9.494;2023-08-01T00:55:54;3.92;;;3.72;;
57615;SDS011;43816;52.054;-9.494;2023-08-01T00:56:05;3.70;;;3.50;;
57615;SDS011;43816;52.054;-9.494;2023-08-01T00:56:15;3.80;;;3.60;;
57615;SDS011;43816;52.054;-9.494;2023-08-01T00:56:25;4.00;;;3.70;;
57615;SDS011;43816;52.054;-9.494;2023-08-01T00:56:36;3.90;;;3.60;;
57615;SDS011;43816;52.054;-9.494;2023-08-01T00:56:46;3.73;;;3.50;;
57615;SDS011;43816;52.054;-9.494;2023-08-01T00:56:57;3.90;;;3.60;;
57615;SDS011;43816;52.054;-9.494;2023-08-01T00:57:07;4.13;;;3.83;;
57615;SDS011;43816;52.054;-9.494;2023-08-01T00:57:18;4.30;;;4.00;;
57615;SDS011;43816;52.054;-9.494;2023-08-01T00:57:29;4.20;;;3.90;;
57615;SDS011;43816;52.054;-9.494;2023-08-01T00:57:39;4.15;;;3.85;;
57615;SDS011;43816;52.054;-9.494;2023-08-01T00:57:50;3.80;;;3.50;;
57615;SDS011;43816;52.054;-9.494;2023-08-01T00:58:00;3.80;;;3.50;;
57615;SDS011;43816;52.054;-9.494;2023-08-01T00:58:11;3.60;;;3.40;;
57615;SDS011;43816;52.054;-9.494;2023-08-01T00:58:21;3.92;;;3.63;;
57615;SDS011;43816;52.054;-9.494;2023-08-01T00:58:31;4.00;;;3.70;;
57615;SDS011;43816;52.054;-9.494;2023-08-01T00:58:42;4.00;;;3.70;;
57615;SDS011;43816;52.054;-9.494;2023-08-01T00:58:52;4.00;;;3.80;;
57615;SDS011;43816;52.054;-9.494;2023-08-01T00:59:02;3.90;;;3.70;;
57615;SDS011;43816;52.054;-9.494;2023-08-01T00:59:12;3.90;;;3.70;;
57615;SDS011;43816;52.054;-9.494;2023-08-01T00:59:23;3.73;;;3.50;;
57615;SDS011;43816;52.054;-9.494;2023-08-01T00:59:33;3.80;;;3.50;;
57615;SDS011;43816;52.054;-9.494;2023-08-01T00:59:43;3.70;;;3.50;;
57615;SDS011;43816;52.054;-9.494;2023-08-01T00:59:54;3.80;;;3.60;;
57615;SDS011;43816;52.054;-9.494;2023-08-01T01:00:06;4.05;;;3.75;;
57615;SDS011;43816;52.054;-9.494;2023-08-01T01:00:16;4.00;;;3.70;;
57615;SDS011;43816;52.054;-9.494;2023-08-01T01:00:27;4.20;;;3.80;;
57615;SDS011;43816;52.054;-9.494;2023-08-01T01:00:37;4.15;;;3.80;;
57615;SDS011;43816;52.054;-9.494;2023-08-01T01:00:47;4.17;;;3.87;;
57615;SDS011;43816;52.054;-9.494;2023-08-01T01:00:57;4.00;;;3.80;;
57615;SDS011;43816;52.054;-9.494;2023-08-01T01:01:08;3.93;;;3.67;;
57615;SDS011;43816;52.054;-9.494;2023-08-01T01:01:18;3.75;;;3.50;;
57615;SDS011;43816;52.054;-9.494;2023-08-01T01:01:28;4.00;;;3.70;;
57615;SDS011;43816;52.054;-9.494;2023-08-01T01:01:38;3.93;;;3.63;;
57615;SDS011;43816;52.054;-9.494;2023-08-01T01:01:49;4.00;;;3.70;;
57615;SDS011;43816;52.054;-9.494;2023-08-01T01:01:59;3.80;;;3.60;;
57615;SDS011;43816;52.054;-9.494;2023-08-01T01:02:10;3.80;;;3.60;;